sensor_id;sensor_type;location;lat;lon;timestamp;P1;durP1;ratioP1;P2;durP2;ratioP2
63370;SDS011;49504;48.336;14.472;2023-06-10T00:03:13;4.38;;;1.90;;
63370;SDS011;49504;48.336;14.472;2023-06-10T00:06:35;3.85;;;1.83;;
63370;SDS011;49504;48.336;14.472;2023-06-10T00:09:59;3.53;;;1.77;;
63370;SDS011;49504;48.336;14.472;2023-06-10T00:13:22;4.25;;;1.73;;
63370;SDS011;49504;48.336;14.472;2023-06-10T00:16:44;3.67;;;1.80;;
63370;SDS011;49504;48.336;14.472;2023-06-10T00:20:10;3.63;;;1.58;;
63370;SDS011;49504;48.336;14.472;2023-06-10T00:23:33;3.85;;;2.00;;
63370;SDS011;49504;48.336;14.472;2023-06-10T00:26:56;4.07;;;1.83;;
63370;SDS011;49504;48.336;14.472;2023-06-10T00:30:19;4.05;;;2.03;;
63370;SDS011;49504;48.336;14.472;2023-06-10T00:33:44;4.75;;;2.05;;
63370;SDS011;49504;48.336;14.472;2023-06-10T00:37:08;4.03;;;1.70;;
63370;SDS011;49504;48.336;14.472;2023-06-10T00:40:33;4.55;;;2.05;;
63370;SDS011;49504;48.336;14.472;2023-06-10T00:44:01;4.10;;;1.48;;
63370;SDS011;49504;48.336;14.472;2023-06-10T00:47:25;5.05;;;1.80;;
63370;SDS011;49504;48.336;14.472;2023-06-10T00:50:48;3.88;;;1.80;;
63370;SDS011;49504;48.336;14.472;2023-06-10T00:54:18;5.15;;;1.75;;
63370;SDS011;49504;48.336;14.472;2023-06-10T00:57:41;5.45;;;1.95;;
63370;SDS011;49504;48.336;14.472;2023-06-10T01:01:06;4.13;;;1.95;;
63370;SDS011;49504;48.336;14.472;2023-06-10T01:04:29;3.92;;;2.10;;
63370;SDS011;49504;48.336;14.472;2023-06-10T01:08:16;4.50;;;1.88;;
63370;SDS011;49504;48.336;14.472;2023-06-10T01:11:50;3.70;;;2.00;;
63370;SDS011;49504;48.336;14.472;2023-06-10T01:15:21;4.35;;;1.83;;
63370;SDS011;49504;48.336;14.472;2023-06-10T01:18:45;3.85;;;1.73;;
63370;SDS011;49504;48.336;14.472;2023-06-10T01:22:09;3.67;;;1.70;;
63370;SDS011;49504;48.336;14.472;2023-06-10T01:26:28;3.47;;;1.67;;
63370;SDS011;49504;48.336;14.472;2023-06-10T01:29:54;4.32;;;1.63;;
63370;SDS011;49504;48.336;14.472;2023-06-10T01:35:01;4.10;;;1.55;;
63370;SDS011;49504;48.336;14.472;2023-06-10T01:39:13;3.53;;;1.90;;
63370;SDS011;49504;48.336;14.472;2023-06-10T01:42:37;3.22;;;1.38;;
63370;SDS011;49504;48.336;14.472;2023-06-10T01:45:59;3.78;;;1.55;;
63370;SDS011;49504;48.336;14.472;2023-06-10T01:49:24;4.33;;;1.73;;
63370;SDS011;49504;48.336;14.472;2023-06-10T01:54:46;3.15;;;1.40;;
63370;SDS011;49504;48.336;14.472;2023-06-10T02:00:09;3.70;;;1.67;;
63370;SDS011;49504;48.336;14.472;2023-06-10T02:03:36;4.88;;;1.58;;
63370;SDS011;49504;48.336;14.472;2023-06-10T02:06:59;3.47;;;1.73;;
63370;SDS011;49504;48.336;14.472;2023-06-10T02:10:22;3.00;;;1.40;;
63370;SDS011;49504;48.336;14.472;2023-06-10T02:13:47;3.30;;;1.40;;
63370;SDS011;49504;48.336;14.472;2023-06-10T02:17:11;4.03;;;1.70;;
63370;SDS011;49504;48.336;14.472;2023-06-10T02:23:38;2.58;;;1.15;;
63370;SDS011;49504;48.336;14.472;2023-06-10T02:27:01;4.13;;;1.77;;
63370;SDS011;49504;48.336;14.472;2023-06-10T02:30:25;4.18;;;1.90;;
63370;SDS011;49504;48.336;14.472;2023-06-10T02:33:47;3.80;;;1.70;;
63370;SDS011;49504;48.336;14.472;2023-06-10T02:40:09;3.30;;;1.40;;
63370;SDS011;49504;48.336;14.472;2023-06-10T02:43:37;3.63;;;1.88;;
63370;SDS011;49504;48.336;14.472;2023-06-10T02:47:00;5.30;;;1.55;;
63370;SDS011;49504;48.336;14.472;2023-06-10T02:50:25;3.33;;;1.58;;
63370;SDS011;49504;48.336;14.472;2023-06-10T02:54:08;3.67;;;1.70;;
63370;SDS011;49504;48.336;14.472;2023-06-10T02:57:32;6.28;;;1.73;;
63370;SDS011;49504;48.336;14.472;2023-06-10T03:00:59;4.57;;;1.70;;
63370;SDS011;49504;48.336;14.472;2023-06-10T03:04:32;3.40;;;1.67;;
63370;SDS011;49504;48.336;14.472;2023-06-10T03:08:07;3.72;;;1.73;;
63370;SDS011;49504;48.336;14.472;2023-06-10T03:11:34;3.35;;;1.50;;
63370;SDS011;49504;48.336;14.472;2023-06-10T03:15:00;3.90;;;1.83;;
63370;SDS011;49504;48.336;14.472;2023-06-10T03:18:25;3.13;;;1.50;;
63370;SDS011;49504;48.336;14.472;2023-06-10T03:21:57;3.42;;;1.38;;
63370;SDS011;49504;48.336;14.472;2023-06-10T03:25:31;3.80;;;1.60;;
63370;SDS011;49504;48.336;14.472;2023-06-10T03:28:54;5.07;;;1.73;;
63370;SDS011;49504;48.336;14.472;2023-06-10T03:32:23;3.33;;;1.40;;
63370;SDS011;49504;48.336;14.472;2023-06-10T03:35:44;3.50;;;1.58;;
63370;SDS011;49504;48.336;14.472;2023-06-10T03:39:07;3.85;;;1.48;;
63370;SDS011;49504;48.336;14.472;2023-06-10T03:42:28;3.40;;;1.50;;
63370;SDS011;49504;48.336;14.472;2023-06-10T03:45:50;3.55;;;1.60;;
63370;SDS011;49504;48.336;14.472;2023-06-10T03:49:13;3.08;;;1.45;;
63370;SDS011;49504;48.336;14.472;2023-06-10T03:52:35;3.88;;;1.83;;
63370;SDS011;49504;48.336;14.472;2023-06-10T03:55:57;3.88;;;1.67;;
63370;SDS011;49504;48.336;14.472;2023-06-10T03:59:20;4.60;;;1.85;;
63370;SDS011;49504;48.336;14.472;2023-06-10T04:02:41;3.65;;;1.45;;
63370;SDS011;49504;48.336;14.472;2023-06-10T04:06:04;3.50;;;1.80;;
63370;SDS011;49504;48.336;14.472;2023-06-10T04:09:25;4.03;;;1.88;;
63370;SDS011;49504;48.336;14.472;2023-06-10T04:12:46;3.40;;;1.60;;
63370;SDS011;49504;48.336;14.472;2023-06-10T04:16:08;3.47;;;1.70;;
63370;SDS011;49504;48.336;14.472;2023-06-10T04:19:29;3.88;;;1.90;;
63370;SDS011;49504;48.336;14.472;2023-06-10T04:22:57;4.60;;;1.92;;
63370;SDS011;49504;48.336;14.472;2023-06-10T04:26:19;3.88;;;2.00;;
63370;SDS011;49504;48.336;14.472;2023-06-10T04:29:42;3.58;;;1.70;;
63370;SDS011;49504;48.336;14.472;2023-06-10T04:33:05;3.25;;;1.67;;
63370;SDS011;49504;48.336;14.472;2023-06-10T04:36:28;3.50;;;1.80;;
63370;SDS011;49504;48.336;14.472;2023-06-10T04:39:57;3.90;;;1.95;;
63370;SDS011;49504;48.336;14.472;2023-06-10T04:43:24;3.58;;;1.75;;
63370;SDS011;49504;48.336;14.472;2023-06-10T04:46:50;4.78;;;1.88;;
63370;SDS011;49504;48.336;14.472;2023-06-10T04:50:15;3.70;;;1.65;;
63370;SDS011;49504;48.336;14.472;2023-06-10T04:53:43;3.40;;;1.67;;
63370;SDS011;49504;48.336;14.472;2023-06-10T04:57:12;3.75;;;1.75;;
63370;SDS011;49504;48.336;14.472;2023-06-10T05:00:36;3.88;;;1.88;;
63370;SDS011;49504;48.336;14.472;2023-06-10T05:04:01;5.00;;;2.22;;
63370;SDS011;49504;48.336;14.472;2023-06-10T05:07:28;9.75;;;1.73;;
63370;SDS011;49504;48.336;14.472;2023-06-10T05:10:49;4.20;;;1.85;;
63370;SDS011;49504;48.336;14.472;2023-06-10T05:14:12;5.00;;;1.70;;
63370;SDS011;49504;48.336;14.472;2023-06-10T05:17:33;3.72;;;1.67;;
63370;SDS011;49504;48.336;14.472;2023-06-10T05:20:54;3.50;;;1.90;;
63370;SDS011;49504;48.336;14.472;2023-06-10T05:24:15;3.20;;;1.58;;
63370;SDS011;49504;48.336;14.472;2023-06-10T05:29:25;3.60;;;1.83;;
63370;SDS011;49504;48.336;14.472;2023-06-10T05:32:46;3.95;;;1.85;;
63370;SDS011;49504;48.336;14.472;2023-06-10T05:36:08;4.18;;;2.15;;
63370;SDS011;49504;48.336;14.472;2023-06-10T05:39:29;4.05;;;2.08;;
63370;SDS011;49504;48.336;14.472;2023-06-10T05:42:50;6.40;;;1.85;;
63370;SDS011;49504;48.336;14.472;2023-06-10T05:46:12;4.80;;;2.15;;
63370;SDS011;49504;48.336;14.472;2023-06-10T05:52:34;3.75;;;1.92;;
63370;SDS011;49504;48.336;14.472;2023-06-10T05:55:56;4.03;;;2.20;;
63370;SDS011;49504;48.336;14.472;2023-06-10T05:59:20;3.60;;;1.67;;
63370;SDS011;49504;48.336;14.472;2023-06-10T06:02:46;4.32;;;2.28;;
63370;SDS011;49504;48.336;14.472;2023-06-10T06:06:17;3.67;;;1.98;;
63370;SDS011;49504;48.336;14.472;2023-06-10T06:09:40;3.78;;;1.67;;
63370;SDS011;49504;48.336;14.472;2023-06-10T06:13:02;4.13;;;1.98;;
63370;SDS011;49504;48.336;14.472;2023-06-10T06:16:23;4.03;;;2.05;;
63370;SDS011;49504;48.336;14.472;2023-06-10T06:19:44;4.28;;;1.75;;
63370;SDS011;49504;48.336;14.472;2023-06-10T06:23:05;4.88;;;2.15;;
63370;SDS011;49504;48.336;14.472;2023-06-10T06:26:29;4.40;;;2.13;;
63370;SDS011;49504;48.336;14.472;2023-06-10T06:29:53;4.40;;;2.30;;
63370;SDS011;49504;48.336;14.472;2023-06-10T06:33:15;4.75;;;2.25;;
63370;SDS011;49504;48.336;14.472;2023-06-10T06:36:48;4.55;;;2.08;;
63370;SDS011;49504;48.336;14.472;2023-06-10T06:40:11;3.83;;;2.20;;
63370;SDS011;49504;48.336;14.472;2023-06-10T06:43:33;5.60;;;2.40;;
63370;SDS011;49504;48.336;14.472;2023-06-10T06:47:23;4.97;;;2.72;;
63370;SDS011;49504;48.336;14.472;2023-06-10T06:50:44;4.38;;;2.10;;
63370;SDS011;49504;48.336;14.472;2023-06-10T06:56:23;5.13;;;2.38;;
63370;SDS011;49504;48.336;14.472;2023-06-10T06:59:44;4.28;;;2.15;;
63370;SDS011;49504;48.336;14.472;2023-06-10T07:03:07;5.93;;;2.17;;
63370;SDS011;49504;48.336;14.472;2023-06-10T07:06:28;3.75;;;1.98;;
63370;SDS011;49504;48.336;14.472;2023-06-10T07:09:50;4.43;;;2.10;;
63370;SDS011;49504;48.336;14.472;2023-06-10T07:13:13;4.38;;;2.38;;
63370;SDS011;49504;48.336;14.472;2023-06-10T07:16:37;4.53;;;2.20;;
63370;SDS011;49504;48.336;14.472;2023-06-10T07:19:58;5.20;;;2.60;;
63370;SDS011;49504;48.336;14.472;2023-06-10T07:23:20;4.40;;;2.10;;
63370;SDS011;49504;48.336;14.472;2023-06-10T07:26:43;5.60;;;2.15;;
63370;SDS011;49504;48.336;14.472;2023-06-10T07:31:06;4.97;;;2.35;;
63370;SDS011;49504;48.336;14.472;2023-06-10T07:34:31;4.30;;;2.45;;
63370;SDS011;49504;48.336;14.472;2023-06-10T07:37:53;4.55;;;2.47;;
63370;SDS011;49504;48.336;14.472;2023-06-10T07:43:10;4.13;;;2.28;;
63370;SDS011;49504;48.336;14.472;2023-06-10T07:46:31;5.13;;;2.75;;
63370;SDS011;49504;48.336;14.472;2023-06-10T07:49:52;4.75;;;2.42;;
63370;SDS011;49504;48.336;14.472;2023-06-10T07:53:13;5.45;;;2.95;;
63370;SDS011;49504;48.336;14.472;2023-06-10T07:57:33;4.45;;;2.30;;
63370;SDS011;49504;48.336;14.472;2023-06-10T08:00:54;4.95;;;2.88;;
63370;SDS011;49504;48.336;14.472;2023-06-10T08:04:16;4.75;;;2.60;;
63370;SDS011;49504;48.336;14.472;2023-06-10T08:07:37;4.20;;;2.35;;
63370;SDS011;49504;48.336;14.472;2023-06-10T08:12:03;7.22;;;2.72;;
63370;SDS011;49504;48.336;14.472;2023-06-10T08:15:26;5.90;;;3.10;;
63370;SDS011;49504;48.336;14.472;2023-06-10T08:18:48;5.43;;;3.17;;
63370;SDS011;49504;48.336;14.472;2023-06-10T08:25:59;5.20;;;3.00;;
63370;SDS011;49504;48.336;14.472;2023-06-10T08:29:20;7.15;;;3.63;;
63370;SDS011;49504;48.336;14.472;2023-06-10T08:32:41;7.07;;;3.30;;
63370;SDS011;49504;48.336;14.472;2023-06-10T08:36:03;11.65;;;4.03;;
63370;SDS011;49504;48.336;14.472;2023-06-10T08:39:25;10.85;;;4.15;;
63370;SDS011;49504;48.336;14.472;2023-06-10T08:42:51;12.88;;;4.20;;
63370;SDS011;49504;48.336;14.472;2023-06-10T08:47:24;8.68;;;4.00;;
63370;SDS011;49504;48.336;14.472;2023-06-10T08:50:49;10.23;;;4.45;;
63370;SDS011;49504;48.336;14.472;2023-06-10T08:54:14;7.90;;;3.63;;
63370;SDS011;49504;48.336;14.472;2023-06-10T08:57:40;8.75;;;3.65;;
63370;SDS011;49504;48.336;14.472;2023-06-10T09:01:02;8.25;;;4.07;;
63370;SDS011;49504;48.336;14.472;2023-06-10T09:04:25;9.68;;;4.13;;
63370;SDS011;49504;48.336;14.472;2023-06-10T09:07:47;17.15;;;5.95;;
63370;SDS011;49504;48.336;14.472;2023-06-10T09:11:09;8.18;;;3.92;;
63370;SDS011;49504;48.336;14.472;2023-06-10T09:14:31;15.65;;;4.95;;
63370;SDS011;49504;48.336;14.472;2023-06-10T09:17:53;19.15;;;6.28;;
63370;SDS011;49504;48.336;14.472;2023-06-10T09:21:15;15.40;;;4.93;;
63370;SDS011;49504;48.336;14.472;2023-06-10T09:24:38;15.02;;;5.32;;
63370;SDS011;49504;48.336;14.472;2023-06-10T09:27:59;16.48;;;4.95;;
63370;SDS011;49504;48.336;14.472;2023-06-10T09:31:20;22.00;;;6.70;;
63370;SDS011;49504;48.336;14.472;2023-06-10T09:37:56;26.05;;;6.25;;
63370;SDS011;49504;48.336;14.472;2023-06-10T09:42:17;18.90;;;5.57;;
63370;SDS011;49504;48.336;14.472;2023-06-10T09:45:40;15.57;;;6.50;;
63370;SDS011;49504;48.336;14.472;2023-06-10T09:49:02;16.95;;;5.43;;
63370;SDS011;49504;48.336;14.472;2023-06-10T09:52:27;18.08;;;6.13;;
63370;SDS011;49504;48.336;14.472;2023-06-10T10:00:00;23.00;;;5.00;;
63370;SDS011;49504;48.336;14.472;2023-06-10T10:03:31;17.67;;;5.45;;
63370;SDS011;49504;48.336;14.472;2023-06-10T10:07:37;24.00;;;7.95;;
63370;SDS011;49504;48.336;14.472;2023-06-10T10:10:58;10.07;;;5.43;;
63370;SDS011;49504;48.336;14.472;2023-06-10T10:14:20;12.90;;;5.50;;
63370;SDS011;49504;48.336;14.472;2023-06-10T10:17:44;12.48;;;5.47;;
63370;SDS011;49504;48.336;14.472;2023-06-10T10:21:11;18.92;;;6.55;;
63370;SDS011;49504;48.336;14.472;2023-06-10T10:24:36;15.57;;;5.45;;
63370;SDS011;49504;48.336;14.472;2023-06-10T10:28:06;24.13;;;7.68;;
63370;SDS011;49504;48.336;14.472;2023-06-10T10:33:18;20.80;;;7.72;;
63370;SDS011;49504;48.336;14.472;2023-06-10T10:36:57;27.17;;;8.07;;
63370;SDS011;49504;48.336;14.472;2023-06-10T12:28:54;13.45;;;5.90;;
63370;SDS011;49504;48.336;14.472;2023-06-10T12:32:22;8.50;;;4.20;;
63370;SDS011;49504;48.336;14.472;2023-06-10T12:35:58;10.25;;;4.22;;
63370;SDS011;49504;48.336;14.472;2023-06-10T12:39:40;13.02;;;4.20;;
63370;SDS011;49504;48.336;14.472;2023-06-10T12:43:02;11.15;;;4.10;;
63370;SDS011;49504;48.336;14.472;2023-06-10T12:46:37;9.15;;;4.28;;
63370;SDS011;49504;48.336;14.472;2023-06-10T12:50:05;12.30;;;4.85;;
63370;SDS011;49504;48.336;14.472;2023-06-10T12:53:30;11.32;;;4.57;;
63370;SDS011;49504;48.336;14.472;2023-06-10T12:57:49;12.90;;;4.53;;
63370;SDS011;49504;48.336;14.472;2023-06-10T13:01:15;11.65;;;3.90;;
63370;SDS011;49504;48.336;14.472;2023-06-10T13:04:41;11.93;;;3.72;;
63370;SDS011;49504;48.336;14.472;2023-06-10T13:08:13;9.48;;;4.03;;
63370;SDS011;49504;48.336;14.472;2023-06-10T13:11:38;7.97;;;3.60;;
63370;SDS011;49504;48.336;14.472;2023-06-10T13:15:10;8.15;;;3.53;;
63370;SDS011;49504;48.336;14.472;2023-06-10T13:18:32;13.10;;;3.93;;
63370;SDS011;49504;48.336;14.472;2023-06-10T13:21:57;10.45;;;4.78;;
63370;SDS011;49504;48.336;14.472;2023-06-10T13:25:27;9.68;;;3.80;;
63370;SDS011;49504;48.336;14.472;2023-06-10T13:28:50;10.68;;;3.53;;
63370;SDS011;49504;48.336;14.472;2023-06-10T13:32:13;12.10;;;3.80;;
63370;SDS011;49504;48.336;14.472;2023-06-10T13:35:34;6.75;;;3.08;;
63370;SDS011;49504;48.336;14.472;2023-06-10T13:38:56;8.45;;;3.65;;
63370;SDS011;49504;48.336;14.472;2023-06-10T13:42:20;10.30;;;3.53;;
63370;SDS011;49504;48.336;14.472;2023-06-10T13:49:06;7.57;;;2.97;;
63370;SDS011;49504;48.336;14.472;2023-06-10T13:52:28;8.68;;;3.58;;
63370;SDS011;49504;48.336;14.472;2023-06-10T13:56:03;10.07;;;3.53;;
63370;SDS011;49504;48.336;14.472;2023-06-10T13:59:37;7.07;;;3.40;;
63370;SDS011;49504;48.336;14.472;2023-06-10T14:03:03;7.43;;;3.47;;
63370;SDS011;49504;48.336;14.472;2023-06-10T14:06:26;7.22;;;3.33;;
63370;SDS011;49504;48.336;14.472;2023-06-10T14:09:56;5.97;;;3.22;;
63370;SDS011;49504;48.336;14.472;2023-06-10T14:13:23;6.97;;;3.10;;
63370;SDS011;49504;48.336;14.472;2023-06-10T14:16:48;10.35;;;3.45;;
63370;SDS011;49504;48.336;14.472;2023-06-10T14:20:22;7.22;;;3.35;;
63370;SDS011;49504;48.336;14.472;2023-06-10T14:23:46;7.70;;;3.38;;
63370;SDS011;49504;48.336;14.472;2023-06-10T14:27:13;7.97;;;3.53;;
63370;SDS011;49504;48.336;14.472;2023-06-10T14:30:47;7.17;;;2.83;;
63370;SDS011;49504;48.336;14.472;2023-06-10T14:34:13;6.28;;;2.83;;
63370;SDS011;49504;48.336;14.472;2023-06-10T14:37:36;6.85;;;3.15;;
63370;SDS011;49504;48.336;14.472;2023-06-10T14:40:59;7.10;;;2.80;;
